Time;durP1;ratioP1;P1;durP2;ratioP2;P2;SDS_P1;SDS_P2;PMS_P1;PMS_P2;Temp;Humidity;BMP_temperature;BMP_pressure;BME280_temperature;BME280_humidity;BME280_pressure;Samples;Min_cycle;Max_cycle;Signal;HPM_P1;HPM_P2
2024/04/12 00:01:47;;;;;;;0.10;0.10;;;12.80;99.90;;;;;;5399747;26;20018;-62
2024/04/12 00:04:20;;;;;;;0.10;0.10;;;12.80;99.90;;;;;;5405237;26;20036;-63
2024/04/12 00:06:50;;;;;;;0.20;0.20;;;12.80;99.90;;;;;;5401737;26;20336;-62
2024/04/12 00:09:17;;;;;;;0.10;0.10;;;12.80;99.90;;;;;;5404790;26;20006;-62
2024/04/12 00:11:48;;;;;;;0.40;0.22;;;12.80;99.90;;;;;;5401940;26;20008;-63
2024/04/12 00:14:16;;;;;;;0.30;0.10;;;12.80;99.90;;;;;;5401065;26;20000;-63
2024/04/12 00:16:44;;;;;;;0.10;0.10;;;12.70;99.90;;;;;;5401972;26;20504;-62
2024/04/12 00:19:12;;;;;;;0.30;0.30;;;12.80;99.90;;;;;;5403234;26;20010;-62
2024/04/12 00:21:41;;;;;;;0.20;0.20;;;12.80;99.90;;;;;;5399731;26;20026;-62
2024/04/12 00:24:11;;;;;;;0.10;0.10;;;12.70;99.90;;;;;;5404419;26;20028;-62
2024/04/12 00:26:45;;;;;;;0.20;0.20;;;12.70;99.90;;;;;;5404249;26;20370;-62
2024/04/12 00:29:36;;;;;;;0.15;0.15;;;12.80;99.90;;;;;;5404776;26;20038;-62
2024/04/12 00:32:13;;;;;;;0.10;0.10;;;12.70;99.90;;;;;;5401101;26;20007;-62
2024/04/12 00:34:47;;;;;;;0.25;0.15;;;12.70;99.90;;;;;;5404613;26;20014;-62
2024/04/12 00:37:20;;;;;;;0.00;0.00;;;12.70;99.90;;;;;;5403157;26;20003;-62
2024/04/12 00:39:49;;;;;;;0.28;0.28;;;12.70;99.90;;;;;;5393790;26;20004;-62
2024/04/12 00:42:25;;;;;;;0.10;0.10;;;12.70;99.90;;;;;;5403653;26;20018;-62
2024/04/12 00:44:54;;;;;;;0.10;0.10;;;12.70;99.90;;;;;;5402246;26;20082;-62
2024/04/12 00:47:22;;;;;;;0.30;0.30;;;12.80;99.90;;;;;;5404578;26;20104;-62
2024/04/12 00:49:51;;;;;;;0.17;0.17;;;12.70;99.90;;;;;;5403090;26;20581;-62
2024/04/12 00:52:28;;;;;;;0.10;0.10;;;12.70;99.90;;;;;;5402659;26;20007;-62
2024/04/12 00:55:03;;;;;;;0.00;0.00;;;12.60;99.90;;;;;;5403154;26;20007;-62
2024/04/12 00:57:35;;;;;;;0.20;0.20;;;12.60;99.90;;;;;;5403079;26;20004;-63
2024/04/12 01:00:10;;;;;;;0.10;0.10;;;12.70;99.90;;;;;;5401685;26;20003;-62
2024/04/12 01:02:39;;;;;;;0.13;0.13;;;12.80;99.90;;;;;;5397398;26;20008;-62
2024/04/12 01:05:12;;;;;;;0.30;0.30;;;12.80;99.90;;;;;;5404152;26;20029;-63
2024/04/12 01:07:48;;;;;;;0.20;0.00;;;12.70;99.90;;;;;;5401659;26;20358;-62
2024/04/12 01:10:25;;;;;;;0.10;0.10;;;12.70;99.90;;;;;;5403200;26;20376;-62
2024/04/12 01:12:55;;;;;;;0.13;0.13;;;12.70;99.90;;;;;;5401254;26;19999;-62
2024/04/12 01:15:32;;;;;;;0.20;0.20;;;12.70;99.90;;;;;;5402315;26;20356;-62
2024/04/12 01:18:11;;;;;;;0.00;0.00;;;12.70;99.90;;;;;;5403364;26;20376;-62
2024/04/12 01:20:39;;;;;;;0.10;0.10;;;12.80;99.90;;;;;;5400672;26;20011;-63
2024/04/12 01:23:06;;;;;;;0.10;0.10;;;12.80;99.90;;;;;;5391720;26;20283;-62
2024/04/12 01:25:34;;;;;;;0.30;0.30;;;12.80;99.90;;;;;;5403643;26;19999;-62
2024/04/12 01:28:04;;;;;;;0.30;0.17;;;12.80;99.90;;;;;;5395297;26;20022;-62
2024/04/12 01:30:34;;;;;;;0.10;0.10;;;12.80;99.90;;;;;;5403314;26;20505;-62
2024/04/12 01:33:01;;;;;;;0.20;0.08;;;12.80;99.90;;;;;;5395636;26;20353;-62
2024/04/12 01:35:33;;;;;;;0.10;0.10;;;12.80;99.90;;;;;;5393133;26;20018;-62
2024/04/12 01:38:18;;;;;;;0.10;0.10;;;12.80;99.90;;;;;;5398167;26;20384;-62
2024/04/12 01:40:56;;;;;;;0.10;0.10;;;12.80;99.90;;;;;;5403048;26;20018;-62
2024/04/12 01:43:26;;;;;;;0.00;0.00;;;12.80;99.90;;;;;;5401672;26;20404;-62
2024/04/12 01:45:54;;;;;;;0.10;0.10;;;12.80;99.90;;;;;;5401124;26;20007;-62
2024/04/12 01:48:25;;;;;;;0.20;0.20;;;12.70;99.90;;;;;;5398543;26;20018;-62
2024/04/12 01:50:51;;;;;;;0.20;0.20;;;12.80;99.90;;;;;;5402436;26;20664;-62
2024/04/12 01:53:21;;;;;;;0.17;0.17;;;12.80;99.90;;;;;;5402389;26;20014;-62
2024/04/12 01:55:50;;;;;;;0.10;0.10;;;12.80;99.90;;;;;;5403137;26;20007;-62
2024/04/12 01:58:20;;;;;;;0.00;0.00;;;12.80;99.90;;;;;;5392383;26;20003;-62
2024/04/12 02:00:49;;;;;;;0.15;0.15;;;12.70;99.90;;;;;;5380113;26;20774;-62
2024/04/12 02:03:17;;;;;;;0.55;0.25;;;12.80;99.90;;;;;;5420117;26;20002;-62
2024/04/12 02:05:45;;;;;;;0.30;0.30;;;12.80;99.90;;;;;;5403163;26;19999;-63
2024/04/12 02:08:16;;;;;;;0.15;0.15;;;12.90;99.90;;;;;;5390689;26;20008;-62
2024/04/12 02:10:48;;;;;;;0.10;0.10;;;12.80;99.90;;;;;;5400089;26;20356;-62
2024/04/12 02:13:20;;;;;;;0.30;0.30;;;12.70;99.90;;;;;;5399634;26;19996;-62
2024/04/12 02:15:48;;;;;;;0.08;0.08;;;12.80;99.90;;;;;;5399848;26;19999;-62
2024/04/12 02:18:19;;;;;;;0.20;0.20;;;12.70;99.90;;;;;;5402364;26;19999;-62
2024/04/12 02:20:51;;;;;;;0.15;0.15;;;12.80;99.90;;;;;;5400844;26;20019;-62
2024/04/12 02:23:24;;;;;;;0.30;0.30;;;12.80;99.90;;;;;;5402946;26;20000;-63
2024/04/12 02:25:51;;;;;;;0.25;0.25;;;12.80;99.90;;;;;;5399488;26;20018;-63
2024/04/12 02:28:19;;;;;;;0.10;0.10;;;12.90;99.90;;;;;;5401792;26;20032;-62
2024/04/12 02:31:09;;;;;;;0.30;0.30;;;12.80;99.90;;;;;;5399030;26;20015;-63
2024/04/12 02:33:35;;;;;;;0.63;0.30;;;12.90;99.90;;;;;;5400594;26;20007;-62
2024/04/12 02:36:11;;;;;;;0.10;0.10;;;12.90;99.90;;;;;;5384443;26;20399;-62
2024/04/12 02:38:39;;;;;;;0.22;0.22;;;12.90;99.90;;;;;;5397434;26;20378;-62
2024/04/12 02:41:14;;;;;;;0.70;0.40;;;12.90;99.90;;;;;;5402036;26;20519;-63
2024/04/12 02:43:42;;;;;;;0.40;0.40;;;12.90;99.90;;;;;;5389480;26;19999;-62
2024/04/12 02:46:11;;;;;;;0.10;0.10;;;12.90;99.90;;;;;;5400523;26;20015;-62
2024/04/12 02:48:43;;;;;;;0.20;0.20;;;12.80;99.90;;;;;;5398346;26;20040;-62
2024/04/12 02:51:14;;;;;;;0.40;0.40;;;13.00;99.90;;;;;;5400961;26;20010;-62
2024/04/12 02:53:42;;;;;;;0.28;0.28;;;12.90;99.90;;;;;;5402480;26;19996;-62
2024/04/12 02:56:12;;;;;;;0.35;0.20;;;12.90;99.90;;;;;;5401222;26;20018;-62
2024/04/12 02:58:44;;;;;;;0.30;0.30;;;12.90;99.90;;;;;;5400847;26;20361;-63
2024/04/12 03:01:24;;;;;;;0.20;0.20;;;12.90;99.90;;;;;;5393876;26;20014;-63
2024/04/12 03:03:56;;;;;;;0.22;0.22;;;12.80;99.90;;;;;;5397376;26;20004;-62
2024/04/12 03:06:25;;;;;;;0.20;0.20;;;12.80;99.90;;;;;;5399097;26;20022;-63
2024/04/12 03:09:02;;;;;;;0.25;0.25;;;12.90;99.90;;;;;;5400991;26;19999;-63
2024/04/12 03:11:33;;;;;;;0.50;0.30;;;12.90;99.90;;;;;;5400033;26;20021;-62
2024/04/12 03:14:09;;;;;;;0.38;0.38;;;12.90;99.90;;;;;;5401381;26;20590;-62
2024/04/12 03:16:38;;;;;;;0.30;0.30;;;12.90;99.90;;;;;;5400472;26;20008;-62
2024/04/12 03:19:10;;;;;;;0.20;0.20;;;12.90;99.90;;;;;;5399252;26;20007;-62
2024/04/12 03:21:40;;;;;;;1.02;0.30;;;12.80;99.90;;;;;;5400968;26;20264;-62
2024/04/12 03:24:10;;;;;;;0.35;0.35;;;12.90;99.90;;;;;;5400349;26;20007;-62
2024/04/12 03:26:37;;;;;;;0.38;0.38;;;12.90;99.90;;;;;;5381321;26;20007;-62
2024/04/12 03:29:08;;;;;;;0.22;0.22;;;12.90;99.90;;;;;;5403706;26;20008;-62
2024/04/12 03:31:38;;;;;;;0.15;0.15;;;12.90;99.90;;;;;;5403828;26;20363;-62
2024/04/12 03:34:08;;;;;;;0.38;0.38;;;12.90;99.90;;;;;;5403281;26;20018;-62
2024/04/12 03:41:53;;;;;;;0.57;0.55;;;12.90;99.90;;;;;;5394545;26;20407;-62
2024/04/12 03:44:20;;;;;;;0.32;0.22;;;12.90;99.90;;;;;;5391116;26;20007;-63
2024/04/12 03:46:50;;;;;;;0.47;0.30;;;12.90;99.90;;;;;;5401957;26;20008;-63
2024/04/12 03:49:21;;;;;;;0.30;0.30;;;12.80;99.90;;;;;;5404176;26;20459;-62
2024/04/12 03:51:54;;;;;;;0.28;0.28;;;12.80;99.90;;;;;;5403642;26;20008;-63
2024/04/12 03:54:22;;;;;;;0.40;0.40;;;12.80;99.90;;;;;;5404674;26;20008;-63
2024/04/12 03:56:50;;;;;;;0.20;0.20;;;12.80;99.90;;;;;;5391612;26;20007;-62
2024/04/12 03:59:18;;;;;;;0.68;0.43;;;12.80;99.90;;;;;;5404215;26;20035;-62
2024/04/12 04:01:46;;;;;;;1.30;0.43;;;13.00;99.90;;;;;;5404544;26;20095;-63
2024/04/12 04:04:17;;;;;;;0.30;0.30;;;12.80;99.90;;;;;;5402818;26;20026;-62
2024/04/12 04:06:54;;;;;;;0.30;0.30;;;12.90;99.90;;;;;;5404598;26;20010;-62
2024/04/12 04:09:21;;;;;;;0.20;0.20;;;12.90;99.90;;;;;;5402726;26;20004;-62
2024/04/12 04:11:52;;;;;;;0.57;0.50;;;12.90;99.90;;;;;;5405017;26;19996;-63
2024/04/12 04:14:21;;;;;;;0.32;0.20;;;12.90;99.90;;;;;;5402691;26;20016;-62
2024/04/12 04:16:52;;;;;;;0.40;0.40;;;12.90;99.90;;;;;;5404023;26;20000;-62
2024/04/12 04:19:30;;;;;;;0.50;0.30;;;12.90;99.90;;;;;;5403889;26;20036;-62
2024/04/12 04:22:04;;;;;;;0.30;0.30;;;12.90;99.90;;;;;;5404053;26;20056;-62
2024/04/12 04:24:34;;;;;;;0.40;0.40;;;13.00;99.90;;;;;;5402627;26;19999;-62
2024/04/12 04:27:08;;;;;;;0.80;0.40;;;13.00;99.90;;;;;;5404012;26;20846;-62
2024/04/12 04:29:37;;;;;;;0.50;0.50;;;12.90;99.90;;;;;;5403375;26;20014;-62
2024/04/12 04:32:09;;;;;;;0.38;0.38;;;12.90;99.90;;;;;;5405001;26;20096;-62
2024/04/12 04:34:36;;;;;;;0.30;0.30;;;12.90;99.90;;;;;;5403381;26;20010;-62
2024/04/12 04:37:05;;;;;;;0.25;0.20;;;12.90;99.90;;;;;;5404650;26;20036;-63
2024/04/12 04:39:32;;;;;;;0.32;0.32;;;13.00;99.90;;;;;;5402615;26;20557;-62
2024/04/12 04:42:00;;;;;;;0.22;0.22;;;12.90;99.90;;;;;;5404433;26;20031;-62
2024/04/12 04:44:29;;;;;;;0.30;0.30;;;12.90;99.90;;;;;;5403383;26;20000;-62
2024/04/12 04:46:56;;;;;;;0.47;0.47;;;12.90;99.90;;;;;;5404114;26;20029;-62
2024/04/12 04:49:23;;;;;;;0.68;0.35;;;13.00;99.90;;;;;;5403929;26;20013;-62
2024/04/12 04:51:51;;;;;;;0.57;0.50;;;12.90;99.90;;;;;;5401225;26;20008;-62
2024/04/12 04:54:21;;;;;;;0.40;0.40;;;13.00;99.90;;;;;;5404330;26;20006;-62
2024/04/12 04:56:49;;;;;;;0.38;0.38;;;13.00;99.90;;;;;;5402142;26;20502;-62
2024/04/12 04:59:17;;;;;;;0.28;0.28;;;12.90;99.90;;;;;;5404575;26;20002;-62
2024/04/12 05:01:48;;;;;;;0.52;0.30;;;13.00;99.90;;;;;;5399827;26;20007;-63
2024/04/12 05:04:34;;;;;;;0.82;0.40;;;12.90;99.90;;;;;;5403558;26;20027;-62
2024/04/12 05:07:01;;;;;;;0.30;0.30;;;12.90;99.90;;;;;;5403879;26;20036;-62
2024/04/12 05:09:28;;;;;;;0.30;0.30;;;13.00;99.90;;;;;;5389056;26;20554;-62
2024/04/12 05:11:55;;;;;;;0.22;0.22;;;13.00;99.90;;;;;;5402773;26;20014;-62
2024/04/12 05:17:05;;;;;;;0.20;0.20;;;13.10;99.90;;;;;;5401490;26;20007;-62
2024/04/12 05:19:40;;;;;;;0.17;0.17;;;13.00;99.90;;;;;;5396726;26;20483;-63
2024/04/12 05:22:09;;;;;;;0.45;0.17;;;13.00;99.90;;;;;;5399071;26;20416;-62
2024/04/12 05:24:36;;;;;;;0.10;0.10;;;13.00;99.90;;;;;;5393216;26;20008;-62
2024/04/12 05:27:04;;;;;;;0.40;0.35;;;13.00;99.90;;;;;;5398720;26;20003;-63
2024/04/12 05:29:32;;;;;;;0.25;0.25;;;13.00;99.90;;;;;;5394301;26;20432;-63
2024/04/12 05:32:00;;;;;;;0.20;0.15;;;13.10;99.90;;;;;;5388698;26;20008;-63
2024/04/12 05:34:27;;;;;;;0.20;0.20;;;13.20;99.90;;;;;;5400255;26;19999;-62
2024/04/12 05:36:55;;;;;;;0.30;0.30;;;13.20;99.90;;;;;;5387459;26;20354;-61
2024/04/12 05:39:22;;;;;;;0.30;0.30;;;13.20;99.90;;;;;;5391267;26;20027;-63
2024/04/12 05:41:53;;;;;;;0.22;0.22;;;13.20;99.90;;;;;;5398453;26;20340;-62
2024/04/12 05:44:21;;;;;;;0.40;0.40;;;13.10;99.90;;;;;;5402300;26;20504;-62
2024/04/12 05:46:48;;;;;;;0.60;0.60;;;13.10;99.90;;;;;;5374849;26;20019;-62
2024/04/12 05:49:15;;;;;;;0.30;0.30;;;13.20;99.90;;;;;;5400849;26;20000;-62
2024/04/12 05:51:42;;;;;;;0.30;0.30;;;13.20;99.90;;;;;;5387545;26;20018;-62
2024/04/12 05:54:15;;;;;;;0.30;0.30;;;13.20;99.90;;;;;;5391555;26;20018;-62
2024/04/12 05:56:46;;;;;;;0.38;0.32;;;13.30;99.90;;;;;;5398217;26;20008;-62
2024/04/12 05:59:14;;;;;;;0.08;0.08;;;13.30;99.90;;;;;;5375537;26;20334;-62
2024/04/12 06:01:43;;;;;;;0.30;0.30;;;13.30;99.90;;;;;;5383737;26;20445;-62
2024/04/12 06:04:19;;;;;;;0.28;0.28;;;13.30;99.90;;;;;;5387317;26;20000;-62
2024/04/12 06:06:47;;;;;;;0.45;0.25;;;13.30;99.90;;;;;;5381980;26;20008;-62
2024/04/12 06:09:21;;;;;;;0.38;0.20;;;13.30;99.90;;;;;;5390489;26;20000;-62
2024/04/12 06:11:52;;;;;;;0.20;0.20;;;13.30;99.90;;;;;;5370713;26;20008;-65
2024/04/12 06:14:25;;;;;;;0.40;0.30;;;13.30;99.90;;;;;;5401356;26;19999;-64
2024/04/12 06:16:56;;;;;;;0.40;0.40;;;13.20;99.90;;;;;;5402508;26;20517;-65
2024/04/12 06:19:24;;;;;;;0.20;0.20;;;13.20;99.90;;;;;;5394311;26;20330;-65
2024/04/12 06:21:51;;;;;;;0.10;0.10;;;13.20;99.90;;;;;;5400711;26;20023;-64
2024/04/12 06:24:26;;;;;;;0.10;0.10;;;13.30;99.90;;;;;;5402911;26;20035;-64
2024/04/12 06:26:57;;;;;;;0.10;0.10;;;13.30;99.90;;;;;;5401172;26;20008;-65
2024/04/12 06:29:26;;;;;;;0.10;0.10;;;13.20;99.90;;;;;;5402570;26;20000;-65
2024/04/12 06:31:54;;;;;;;0.10;0.10;;;13.30;99.90;;;;;;5399608;26;20018;-62
2024/04/12 06:34:22;;;;;;;0.22;0.22;;;13.30;99.90;;;;;;5396207;26;20516;-62
2024/04/12 06:36:56;;;;;;;0.43;0.20;;;13.30;99.90;;;;;;5390773;26;20021;-63
2024/04/12 06:39:26;;;;;;;0.40;0.40;;;13.30;99.90;;;;;;5394416;26;20000;-63
2024/04/12 06:41:54;;;;;;;0.10;0.10;;;13.30;99.90;;;;;;5398720;26;20022;-63
2024/04/12 06:44:21;;;;;;;0.20;0.20;;;13.30;99.90;;;;;;5401594;26;20007;-62
2024/04/12 06:46:52;;;;;;;0.10;0.10;;;13.30;99.90;;;;;;5399163;26;20036;-62
2024/04/12 06:49:26;;;;;;;0.10;0.10;;;13.30;99.90;;;;;;5395445;26;20340;-62
2024/04/12 06:52:09;;;;;;;0.63;0.40;;;13.30;99.90;;;;;;5401028;26;20007;-63
2024/04/12 06:54:41;;;;;;;0.35;0.20;;;13.40;99.90;;;;;;5396140;26;20576;-62
2024/04/12 06:57:21;;;;;;;0.60;0.25;;;13.40;99.90;;;;;;5394267;26;20008;-62
2024/04/12 07:00:00;;;;;;;0.20;0.20;;;13.40;99.90;;;;;;5401064;26;20000;-62
2024/04/12 07:02:29;;;;;;;0.30;0.30;;;13.40;99.90;;;;;;5392539;26;20005;-63
2024/04/12 07:04:57;;;;;;;0.38;0.38;;;13.40;99.90;;;;;;5403879;26;20018;-62
2024/04/12 07:07:24;;;;;;;0.10;0.10;;;13.40;99.90;;;;;;5393146;26;20022;-64
2024/04/12 07:09:57;;;;;;;0.55;0.38;;;13.40;99.90;;;;;;5393386;26;20018;-64
2024/04/12 07:12:27;;;;;;;0.35;0.20;;;13.40;99.90;;;;;;5397849;26;20018;-64
2024/04/12 07:14:54;;;;;;;0.43;0.43;;;13.50;99.90;;;;;;5392704;26;20018;-63
2024/04/12 07:17:23;;;;;;;0.30;0.30;;;13.40;99.90;;;;;;5397570;26;20007;-63
2024/04/12 07:19:51;;;;;;;0.20;0.20;;;13.50;99.90;;;;;;5378082;26;20004;-63
2024/04/12 07:22:22;;;;;;;0.20;0.20;;;13.40;99.90;;;;;;5397795;26;20004;-63
2024/04/12 07:24:50;;;;;;;0.25;0.25;;;13.40;99.90;;;;;;5403293;26;20003;-63
2024/04/12 07:27:22;;;;;;;0.20;0.20;;;13.40;99.90;;;;;;5404795;26;20966;-63
2024/04/12 07:29:50;;;;;;;0.30;0.30;;;13.50;99.90;;;;;;5403398;26;20404;-63
2024/04/12 07:32:22;;;;;;;0.10;0.10;;;13.50;99.90;;;;;;5397882;26;20010;-63
2024/04/12 07:34:50;;;;;;;0.30;0.30;;;13.50;99.90;;;;;;5395971;26;20022;-63
2024/04/12 07:37:27;;;;;;;0.30;0.22;;;13.60;99.90;;;;;;5391076;26;20025;-63
2024/04/12 07:42:47;;;;;;;1.10;0.45;;;13.60;99.90;;;;;;5396459;26;20022;-63
2024/04/12 07:45:25;;;;;;;0.50;0.50;;;13.60;99.90;;;;;;5391644;26;20000;-63
2024/04/12 07:47:53;;;;;;;0.55;0.28;;;13.70;99.90;;;;;;5403816;26;20007;-63
2024/04/12 07:50:29;;;;;;;0.35;0.20;;;13.70;99.90;;;;;;5388704;26;20001;-63
2024/04/12 07:52:58;;;;;;;0.45;0.30;;;13.70;99.90;;;;;;5393637;26;20008;-63
2024/04/12 07:55:25;;;;;;;0.57;0.57;;;13.70;99.90;;;;;;5389115;26;20082;-63
2024/04/12 07:57:55;;;;;;;0.43;0.43;;;13.80;99.90;;;;;;5397412;26;20116;-63
2024/04/12 08:00:36;;;;;;;;;;;13.80;99.90;;;;;;5388837;26;20000;-63
2024/04/12 08:03:06;;;;;;;0.55;0.40;;;13.90;99.90;;;;;;5402800;26;19953;-63
2024/04/12 08:05:59;;;;;;;0.60;0.60;;;14.00;99.90;;;;;;5397963;26;20447;-62
2024/04/12 08:08:28;;;;;;;0.43;0.30;;;14.10;99.90;;;;;;5384070;26;20039;-63
2024/04/12 08:11:31;;;;;;;1.05;0.60;;;14.10;99.90;;;;;;5399077;26;20000;-63
2024/04/12 08:14:05;;;;;;;0.40;0.40;;;14.20;99.90;;;;;;5401709;26;20007;-63
2024/04/12 08:16:38;;;;;;;0.22;0.22;;;14.30;99.90;;;;;;5373712;26;20000;-63
2024/04/12 08:19:12;;;;;;;0.55;0.40;;;14.30;99.90;;;;;;5397614;26;20014;-63
2024/04/12 08:21:43;;;;;;;0.43;0.43;;;14.50;99.90;;;;;;5405015;26;19999;-63
2024/04/12 08:24:14;;;;;;;0.50;0.50;;;14.50;99.90;;;;;;5401807;26;20007;-63
2024/04/12 08:26:46;;;;;;;0.22;0.22;;;14.60;99.90;;;;;;5404921;26;20014;-63
2024/04/12 08:29:26;;;;;;;0.68;0.68;;;14.80;99.90;;;;;;5393715;26;20021;-63
2024/04/12 08:32:04;;;;;;;0.45;0.45;;;14.90;99.90;;;;;;5388085;26;19999;-63
2024/04/12 08:34:33;;;;;;;0.65;0.60;;;15.10;99.90;;;;;;5395528;26;20018;-63
2024/04/12 08:37:12;;;;;;;0.45;0.45;;;15.30;99.90;;;;;;5402513;26;19999;-63
2024/04/12 08:39:43;;;;;;;1.35;0.52;;;15.40;99.90;;;;;;5386488;26;20336;-63
2024/04/12 08:42:14;;;;;;;0.40;0.40;;;15.50;99.90;;;;;;5384958;26;20021;-62
2024/04/12 08:44:46;;;;;;;0.40;0.40;;;15.60;99.90;;;;;;5400213;26;20036;-62
2024/04/12 08:50:13;;;;;;;;;;;16.00;99.90;;;;;;5398443;26;20000;-63
2024/04/12 08:52:44;;;;;;;0.43;0.43;;;16.10;99.90;;;;;;5384826;26;20368;-63
2024/04/12 08:55:13;;;;;;;0.50;0.50;;;16.20;99.90;;;;;;5392740;26;20018;-63
2024/04/12 08:57:41;;;;;;;0.40;0.40;;;16.40;99.90;;;;;;5380723;26;20478;-63
2024/04/12 09:00:28;;;;;;;0.60;0.60;;;16.60;99.90;;;;;;5390294;26;20556;-63
2024/04/12 09:02:59;;;;;;;0.40;0.40;;;16.60;99.90;;;;;;5396825;26;20426;-63
2024/04/12 09:05:26;;;;;;;0.70;0.55;;;16.60;99.90;;;;;;5377368;26;20225;-63
2024/04/12 09:07:58;;;;;;;0.60;0.60;;;16.70;99.90;;;;;;5378477;26;20052;-63
2024/04/12 09:10:27;;;;;;;0.60;0.60;;;16.70;99.90;;;;;;5395833;26;20393;-63
2024/04/12 09:12:54;;;;;;;0.70;0.70;;;16.80;99.90;;;;;;5402181;26;20044;-63
2024/04/12 09:15:24;;;;;;;2.20;0.47;;;16.70;2.00;;;;;;5403644;26;20021;-63
2024/04/12 09:17:59;;;;;;;;;;;16.70;99.90;;;;;;5404028;26;20021;-63
2024/04/12 09:20:31;;;;;;;0.88;0.52;;;16.80;1.00;;;;;;5400594;26;19925;-63
2024/04/12 09:23:32;;;;;;;0.38;0.38;;;16.80;99.90;;;;;;5401301;26;20014;-63
2024/04/12 09:25:55;;;;;;;0.55;0.55;;;16.90;99.90;;;;;;5399031;26;20019;-63
2024/04/12 09:28:27;;;;;;;0.55;0.55;;;17.00;99.90;;;;;;5388264;26;20044;-63
2024/04/12 09:33:50;;;;;;;0.82;0.45;;;17.30;99.90;;;;;;5402310;26;20372;-63
2024/04/12 09:36:50;;;;;;;0.47;0.47;;;17.40;99.90;;;;;;5403275;26;20007;-63
2024/04/12 09:39:20;;;;;;;1.70;0.55;;;17.40;99.90;;;;;;5364616;26;20022;-63
2024/04/12 09:41:56;;;;;;;0.28;0.28;;;17.40;99.90;;;;;;5367410;26;20028;-63
2024/04/12 09:44:27;;;;;;;0.25;0.25;;;17.40;99.90;;;;;;5366846;26;20516;-63
2024/04/12 10:37:30;;;;;;;0.17;0.17;;;18.50;1.00;;;;;;5361555;26;20000;-63
2024/04/12 10:40:04;;;;;;;0.20;0.20;;;18.50;1.00;;;;;;5396740;26;20008;-63
2024/04/12 10:42:31;;;;;;;0.35;0.35;;;18.40;1.00;;;;;;5394197;26;20003;-63
2024/04/12 10:45:07;;;;;;;0.60;0.47;;;18.40;2.20;;;;;;5398090;26;20007;-64
2024/04/12 10:47:39;;;;;;;0.35;0.28;;;18.60;52.50;;;;;;5397054;26;20479;-64
2024/04/12 10:50:07;;;;;;;0.30;0.30;;;18.80;1.00;;;;;;5391242;26;20008;-63
2024/04/12 10:52:34;;;;;;;0.30;0.10;;;18.90;1.00;;;;;;5397664;26;20010;-63
2024/04/12 10:55:09;;;;;;;0.30;0.30;;;18.90;1.00;;;;;;5391721;26;20452;-63
2024/04/12 10:57:40;;;;;;;0.30;0.30;;;18.80;5.80;;;;;;5396220;26;19999;-64
2024/04/12 11:00:15;;;;;;;0.30;0.30;;;18.70;1.00;;;;;;5393758;26;20007;-63
2024/04/12 11:02:43;;;;;;;0.30;0.30;;;18.60;15.70;;;;;;5396541;26;20004;-64
2024/04/12 11:07:49;;;;;;;0.43;0.22;;;18.50;1.00;;;;;;5397998;26;20104;-63
2024/04/12 11:13:06;;;;;;;0.30;0.30;;;18.30;1.00;;;;;;5399307;26;20010;-63
2024/04/12 11:32:18;;;;;;;0.20;0.20;;;19.00;1.00;;;;;;5397823;26;20022;-62
2024/04/12 11:34:45;;;;;;;0.13;0.13;;;18.80;1.00;;;;;;5391809;26;20008;-63
2024/04/12 11:37:13;;;;;;;0.40;0.40;;;18.70;1.00;;;;;;5399697;26;20500;-63
2024/04/12 11:39:41;;;;;;;0.90;0.30;;;18.60;1.00;;;;;;5395933;26;20000;-63
2024/04/12 11:42:18;;;;;;;0.15;0.15;;;18.60;1.00;;;;;;5399022;26;20344;-63
2024/04/12 11:44:47;;;;;;;0.30;0.30;;;18.60;1.00;;;;;;5395651;26;20007;-63
2024/04/12 11:47:16;;;;;;;1.15;0.35;;;18.50;1.00;;;;;;5399764;26;20017;-63
2024/04/12 11:49:49;;;;;;;0.17;0.17;;;18.60;1.00;;;;;;5392497;26;20026;-63
2024/04/12 11:52:17;;;;;;;0.20;0.20;;;18.50;1.00;;;;;;5379946;26;20008;-62
2024/04/12 11:54:52;;;;;;;0.20;0.20;;;18.60;1.00;;;;;;5401607;26;20490;-63
2024/04/12 11:57:27;;;;;;;0.30;0.30;;;18.70;1.00;;;;;;5381933;26;20032;-62
2024/04/12 11:59:58;;;;;;;0.25;0.10;;;18.60;1.00;;;;;;5383715;26;20341;-63
2024/04/12 12:02:28;;;;;;;0.10;0.10;;;18.50;1.00;;;;;;5385012;26;20008;-63
2024/04/12 12:04:56;;;;;;;0.00;0.00;;;18.40;1.00;;;;;;5403228;26;20015;-63
2024/04/12 12:07:26;;;;;;;0.20;0.20;;;18.40;1.00;;;;;;5390017;26;20017;-63
2024/04/12 12:09:53;;;;;;;0.20;0.20;;;18.40;1.00;;;;;;5395542;26;20005;-63
2024/04/12 12:12:26;;;;;;;0.35;0.25;;;18.30;1.00;;;;;;5403693;26;20366;-63
2024/04/12 12:14:53;;;;;;;0.10;0.10;;;18.40;1.00;;;;;;5404015;26;20018;-63
2024/04/12 12:17:20;;;;;;;0.10;0.10;;;18.30;1.00;;;;;;5403939;26;20007;-63
2024/04/12 12:19:51;;;;;;;0.10;0.10;;;18.50;1.00;;;;;;5401548;26;19999;-64
2024/04/12 12:22:21;;;;;;;0.00;0.00;;;18.50;1.00;;;;;;5366996;26;20008;-63
2024/04/12 12:24:48;;;;;;;0.20;0.20;;;18.50;1.00;;;;;;5402308;26;20314;-63
2024/04/12 12:27:19;;;;;;;0.20;0.20;;;18.50;1.00;;;;;;5401939;26;19999;-63
2024/04/12 12:29:53;;;;;;;0.10;0.10;;;18.50;1.00;;;;;;5401083;26;20004;-63
2024/04/12 12:32:26;;;;;;;0.20;0.10;;;18.40;1.00;;;;;;5398780;26;20352;-63
2024/04/12 12:34:54;;;;;;;0.40;0.40;;;18.50;1.00;;;;;;5396026;26;20446;-63
2024/04/12 12:37:24;;;;;;;0.25;0.10;;;18.40;1.00;;;;;;5399539;26;20089;-61
2024/04/12 12:39:51;;;;;;;0.45;0.10;;;18.50;1.00;;;;;;5395865;26;20007;-61
2024/04/12 12:42:19;;;;;;;0.10;0.10;;;18.60;1.00;;;;;;5397862;26;20000;-61
2024/04/12 12:44:46;;;;;;;0.20;0.20;;;18.60;1.00;;;;;;5395910;26;20362;-61
2024/04/12 12:47:15;;;;;;;0.25;0.25;;;18.70;1.00;;;;;;5401375;26;20003;-61
2024/04/12 12:49:53;;;;;;;0.00;0.00;;;18.70;1.00;;;;;;5399981;26;20000;-61
2024/04/12 12:52:20;;;;;;;0.90;0.28;;;18.70;1.00;;;;;;5397904;26;20003;-61
2024/04/12 12:54:47;;;;;;;0.00;0.00;;;18.80;1.00;;;;;;5402352;26;20420;-61
2024/04/12 12:57:17;;;;;;;0.30;0.30;;;18.80;1.00;;;;;;5396186;26;20017;-61
2024/04/12 13:00:05;;;;;;;0.08;0.08;;;18.80;1.00;;;;;;5399101;26;20007;-61
2024/04/12 13:02:36;;;;;;;0.10;0.10;;;18.50;1.00;;;;;;5401070;26;20449;-61
2024/04/12 13:05:06;;;;;;;0.10;0.10;;;18.40;1.00;;;;;;5390804;26;20007;-61
2024/04/12 13:07:33;;;;;;;0.10;0.10;;;18.30;1.00;;;;;;5401468;26;19995;-62
2024/04/12 13:10:05;;;;;;;0.10;0.10;;;18.30;1.00;;;;;;5390080;26;20014;-61
2024/04/12 13:12:32;;;;;;;0.35;0.20;;;18.30;1.00;;;;;;5402818;26;20008;-62
2024/04/12 13:14:59;;;;;;;0.10;0.10;;;18.20;1.00;;;;;;5395702;26;20007;-61
2024/04/12 13:17:26;;;;;;;0.32;0.20;;;18.30;1.00;;;;;;5399197;26;20000;-61
2024/04/12 13:19:56;;;;;;;1.33;0.65;;;18.30;1.00;;;;;;5379788;26;20008;-61
2024/04/12 13:22:23;;;;;;;0.13;0.13;;;18.40;1.00;;;;;;5380415;26;20435;-61
2024/04/12 13:24:51;;;;;;;0.10;0.10;;;18.30;1.00;;;;;;5401723;26;20016;-61
2024/04/12 13:27:23;;;;;;;0.00;0.00;;;18.40;1.00;;;;;;5400921;26;20009;-61
2024/04/12 13:29:51;;;;;;;0.08;0.08;;;18.40;1.00;;;;;;5380210;26;20004;-61
2024/04/12 13:32:19;;;;;;;1.08;0.10;;;18.40;1.00;;;;;;5389806;26;20003;-61
2024/04/12 13:34:46;;;;;;;0.40;0.17;;;18.50;1.00;;;;;;5393821;26;20008;-61
2024/04/12 13:37:20;;;;;;;0.03;0.03;;;18.50;1.00;;;;;;5374357;26;20019;-61
2024/04/12 13:39:48;;;;;;;0.00;0.00;;;18.30;1.00;;;;;;5388737;26;20019;-61
2024/04/12 13:42:23;;;;;;;0.32;0.20;;;18.30;1.00;;;;;;5375228;26;20003;-61
2024/04/12 13:53:09;;;;;;;0.10;0.10;;;18.10;1.00;;;;;;5375497;26;19999;-61
2024/04/12 13:55:46;;;;;;;0.65;0.00;;;18.00;1.00;;;;;;5375764;26;20008;-61
2024/04/12 13:58:14;;;;;;;0.03;0.03;;;18.00;1.00;;;;;;5395861;26;20006;-62
2024/04/12 14:00:48;;;;;;;0.00;0.00;;;18.00;1.00;;;;;;5389965;26;20015;-62
2024/04/12 14:03:23;;;;;;;0.03;0.03;;;17.90;1.00;;;;;;5389371;26;20035;-62
2024/04/12 14:05:56;;;;;;;0.25;0.08;;;17.90;1.00;;;;;;5399886;26;20007;-62
2024/04/12 14:08:28;;;;;;;0.03;0.03;;;18.00;1.00;;;;;;5401121;26;19999;-63
2024/04/12 14:10:55;;;;;;;0.10;0.10;;;18.00;1.00;;;;;;5401204;26;20818;-62
2024/04/12 14:13:22;;;;;;;0.00;0.00;;;18.00;1.00;;;;;;5402793;26;20552;-62
2024/04/12 14:15:49;;;;;;;0.10;0.10;;;18.00;1.00;;;;;;5398473;26;20008;-63
2024/04/12 14:18:17;;;;;;;0.00;0.00;;;18.00;1.00;;;;;;5402925;26;20393;-63
2024/04/12 14:20:44;;;;;;;0.13;0.10;;;18.00;1.00;;;;;;5389883;26;20031;-62
2024/04/12 14:23:11;;;;;;;0.10;0.10;;;17.90;1.00;;;;;;5401597;26;20035;-62
2024/04/12 14:25:38;;;;;;;0.17;0.10;;;17.80;1.00;;;;;;5401495;26;20475;-63
2024/04/12 14:28:05;;;;;;;0.10;0.10;;;17.80;1.00;;;;;;5377851;26;19999;-63
2024/04/12 14:30:35;;;;;;;0.10;0.10;;;17.80;1.00;;;;;;5399306;26;20003;-62
2024/04/12 14:33:03;;;;;;;0.10;0.10;;;17.60;1.00;;;;;;5400474;26;20013;-62
2024/04/12 14:35:30;;;;;;;0.10;0.10;;;17.70;1.00;;;;;;5399838;26;20004;-62
2024/04/12 14:37:58;;;;;;;0.00;0.00;;;17.70;1.00;;;;;;5377191;26;20000;-62
2024/04/12 14:40:29;;;;;;;0.00;0.00;;;17.70;1.00;;;;;;5387863;26;20026;-62
2024/04/12 14:42:58;;;;;;;0.32;0.10;;;17.70;1.00;;;;;;5403104;26;20094;-62
2024/04/12 14:45:25;;;;;;;0.00;0.00;;;17.50;1.00;;;;;;5399487;26;20014;-62
2024/04/12 14:47:52;;;;;;;0.10;0.10;;;17.40;1.00;;;;;;5397314;26;20008;-62